createdAt,value
2018-11-07T00:02:24.538Z,86.48
2018-11-07T00:04:56.294Z,86.46
2018-11-07T00:07:28.612Z,86.45
2018-11-07T00:09:59.251Z,86.05
2018-11-07T00:12:29.217Z,86.65
2018-11-07T00:14:59.351Z,85.09
2018-11-07T00:17:30.008Z,85.18
2018-11-07T00:20:00.596Z,85.57
2018-11-07T00:22:30.531Z,85.63
2018-11-07T00:25:00.447Z,86.26
2018-11-07T00:27:31.047Z,86.27
2018-11-07T00:30:01.362Z,86.61
2018-11-07T00:32:31.430Z,86.64
2018-11-07T00:35:01.462Z,87.03
2018-11-07T00:37:31.538Z,87.17
2018-11-07T00:40:01.641Z,87.56
2018-11-07T00:42:31.486Z,87.83
2018-11-07T00:45:03.602Z,88.02
2018-11-07T00:47:34.281Z,88.13
2018-11-07T00:50:05.574Z,88.20
2018-11-07T00:52:35.590Z,88.44
2018-11-07T00:55:08.259Z,88.16
2018-11-07T00:57:38.215Z,88.22
2018-11-07T01:00:11.645Z,87.97
2018-11-07T01:02:42.279Z,87.79
2018-11-07T01:05:53.740Z,87.92
2018-11-07T01:08:24.489Z,88.06
2018-11-07T01:10:54.582Z,88.10
2018-11-07T01:13:24.764Z,87.78
2018-11-07T01:15:55.302Z,87.82
2018-11-07T01:18:25.834Z,87.40
2018-11-07T01:20:55.834Z,87.61
2018-11-07T01:23:25.763Z,88.42
2018-11-07T01:25:55.828Z,88.50
2018-11-07T01:28:25.901Z,89.11
2018-11-07T01:30:57.349Z,89.95
2018-11-07T01:33:27.453Z,91.62
2018-11-07T01:35:58.016Z,92.39
2018-11-07T01:38:30.497Z,92.33
2018-11-07T01:41:16.681Z,92.09
2018-11-07T01:43:47.090Z,91.32
2018-11-07T01:46:17.094Z,90.36
2018-11-07T01:48:47.120Z,89.79
2018-11-07T01:51:17.339Z,90.25
2018-11-07T01:53:47.394Z,89.81
2018-11-07T01:56:19.034Z,89.12
2018-11-07T01:58:49.145Z,90.12
2018-11-07T02:01:19.272Z,90.29
2018-11-07T02:03:49.241Z,89.62
2018-11-07T02:06:19.127Z,89.25
2018-11-07T02:08:49.162Z,89.22
2018-11-07T02:11:18.999Z,89.40
2018-11-07T02:13:48.982Z,88.76
2018-11-07T02:16:19.048Z,89.07
2018-11-07T02:18:48.895Z,88.68
2018-11-07T02:21:18.946Z,88.60
2018-11-07T02:23:48.864Z,88.50
2018-11-07T02:26:19.052Z,88.49
2018-11-07T02:28:49.206Z,88.58
2018-11-07T02:31:19.144Z,88.87
2018-11-07T02:33:49.894Z,88.82
2018-11-07T02:36:19.755Z,88.88
2018-11-07T02:38:50.177Z,89.08
2018-11-07T02:41:20.132Z,88.71
2018-11-07T02:43:50.150Z,89.09
2018-11-07T02:46:20.121Z,89.21
2018-11-07T02:48:50.046Z,89.18
2018-11-07T02:51:21.201Z,89.06
2018-11-07T02:53:51.073Z,88.73
2018-11-07T02:56:20.978Z,88.49
2018-11-07T02:58:50.823Z,89.12
2018-11-07T03:01:20.840Z,88.75
2018-11-07T03:03:50.839Z,88.71
2018-11-07T03:06:20.912Z,88.96
2018-11-07T03:08:50.757Z,88.08
2018-11-07T03:11:20.639Z,87.68
2018-11-07T03:13:50.535Z,88.29
2018-11-07T03:16:20.345Z,88.15
2018-11-07T03:18:50.304Z,88.98
2018-11-07T03:21:20.396Z,88.60
2018-11-07T03:23:50.343Z,88.90
2018-11-07T03:26:20.274Z,89.12
2018-11-07T03:28:51.019Z,90.15
2018-11-07T03:31:21.251Z,89.97
2018-11-07T03:33:51.873Z,89.25
2018-11-07T03:36:21.821Z,89.47
2018-11-07T03:38:51.641Z,90.68
2018-11-07T03:41:21.509Z,91.33
2018-11-07T03:43:51.545Z,90.61
2018-11-07T03:46:21.616Z,93.11
2018-11-07T03:48:51.761Z,93.85
2018-11-07T03:51:21.677Z,93.84
2018-11-07T03:53:52.312Z,93.52
2018-11-07T03:56:22.580Z,93.59
2018-11-07T03:58:52.512Z,93.34
2018-11-07T04:01:22.452Z,94.57
2018-11-07T04:03:52.375Z,93.95
2018-11-07T04:06:22.287Z,94.06
2018-11-07T04:08:52.289Z,94.16
2018-11-07T04:11:22.123Z,94.92
2018-11-07T04:13:51.949Z,95.60
2018-11-07T04:16:21.886Z,95.19
2018-11-07T04:18:51.845Z,95.69
2018-11-07T04:21:21.655Z,95.96
2018-11-07T04:24:00.651Z,95.77
2018-11-07T04:26:31.659Z,95.79
2018-11-07T04:29:01.901Z,96.36
2018-11-07T04:31:32.118Z,96.13
2018-11-07T04:34:02.079Z,95.91
2018-11-07T04:36:31.929Z,95.39
2018-11-07T04:39:01.860Z,95.95
2018-11-07T04:41:32.731Z,95.71
2018-11-07T04:44:02.681Z,96.20
2018-11-07T04:46:33.183Z,96.22
2018-11-07T04:49:03.078Z,96.25
2018-11-07T04:51:33.031Z,96.28
2018-11-07T04:54:04.023Z,93.82
2018-11-07T04:56:33.908Z,94.03
2018-11-07T04:59:03.881Z,93.91
2018-11-07T05:01:33.899Z,93.26
2018-11-07T05:04:03.715Z,92.13
2018-11-07T05:06:33.777Z,91.91
2018-11-07T05:09:04.265Z,92.37
2018-11-07T05:11:34.188Z,91.67
2018-11-07T05:14:04.185Z,91.81
2018-11-07T05:16:34.357Z,91.79
2018-11-07T05:19:04.177Z,91.66
2018-11-07T05:21:34.115Z,90.63
2018-11-07T05:24:04.091Z,89.76
2018-11-07T05:26:34.150Z,90.49
2018-11-07T05:29:04.474Z,90.90
2018-11-07T05:31:34.503Z,91.00
2018-11-07T05:34:04.481Z,90.60
2018-11-07T05:36:34.448Z,90.56
2018-11-07T05:39:05.031Z,90.60
2018-11-07T05:41:35.101Z,90.46
2018-11-07T05:44:05.095Z,90.64
2018-11-07T05:46:35.050Z,90.47
2018-11-07T05:49:05.433Z,90.57
2018-11-07T05:51:35.533Z,90.39
2018-11-07T05:54:05.585Z,89.75
2018-11-07T05:56:35.485Z,89.83
2018-11-07T05:59:05.777Z,90.39
2018-11-07T06:01:35.799Z,90.55
2018-11-07T06:04:06.299Z,90.95
2018-11-07T06:06:36.318Z,91.05
2018-11-07T06:09:08.567Z,90.28
2018-11-07T06:11:38.657Z,90.18
2018-11-07T06:14:09.277Z,90.68
2018-11-07T06:16:39.200Z,90.54
2018-11-07T06:19:09.397Z,90.11
2018-11-07T06:21:39.687Z,90.30
2018-11-07T06:24:09.840Z,89.41
2018-11-07T06:26:40.490Z,90.27
2018-11-07T06:29:10.425Z,90.02
2018-11-07T06:31:40.410Z,90.53
2018-11-07T06:34:10.496Z,89.92
2018-11-07T06:36:40.832Z,90.11
2018-11-07T06:39:11.619Z,90.08
2018-11-07T06:41:41.662Z,89.20
2018-11-07T06:44:11.635Z,89.38
2018-11-07T06:46:41.682Z,89.26
2018-11-07T06:49:11.764Z,89.18
2018-11-07T06:51:41.830Z,90.47
2018-11-07T06:54:12.386Z,90.82
2018-11-07T06:56:42.336Z,91.21
2018-11-07T06:59:12.268Z,91.48
2018-11-07T07:01:42.336Z,91.60
2018-11-07T07:04:13.138Z,90.90
2018-11-07T07:06:43.138Z,90.97
2018-11-07T07:09:13.195Z,90.96
2018-11-07T07:11:43.840Z,90.65
2018-11-07T07:14:13.756Z,90.58
2018-11-07T07:16:43.642Z,90.55
2018-11-07T07:19:13.977Z,90.13
2018-11-07T07:21:44.038Z,89.97
2018-11-07T07:24:14.076Z,88.84
2018-11-07T07:26:43.894Z,89.48
2018-11-07T07:29:14.894Z,89.03
2018-11-07T07:31:44.745Z,89.68
2018-11-07T07:34:15.348Z,89.75
2018-11-07T07:36:45.323Z,88.92
2018-11-07T07:39:15.866Z,89.09
2018-11-07T07:41:45.696Z,89.38
2018-11-07T07:44:16.020Z,88.65
2018-11-07T07:46:46.102Z,89.07
2018-11-07T07:49:15.966Z,89.26
2018-11-07T07:51:45.957Z,88.10
2018-11-07T07:54:15.781Z,87.92
2018-11-07T07:56:45.675Z,88.28
2018-11-07T07:59:15.684Z,88.26
2018-11-07T08:01:45.584Z,88.45
2018-11-07T08:04:15.466Z,88.70
2018-11-07T08:06:45.516Z,88.41
2018-11-07T08:09:15.451Z,88.04
2018-11-07T08:11:45.319Z,87.41
2018-11-07T08:14:15.747Z,87.54
2018-11-07T08:16:45.567Z,87.26
2018-11-07T08:19:16.340Z,87.27
2018-11-07T08:21:46.153Z,87.93
2018-11-07T08:24:15.983Z,87.68
2018-11-07T08:26:45.783Z,88.02
2018-11-07T08:29:15.682Z,88.07
2018-11-07T08:31:46.234Z,88.05
2018-11-07T08:34:16.227Z,87.85
2018-11-07T08:36:45.953Z,88.33
2018-11-07T08:39:15.713Z,87.98
2018-11-07T08:41:45.481Z,87.66
2018-11-07T08:44:15.616Z,87.82
2018-11-07T08:46:45.995Z,87.88
2018-11-07T08:49:16.783Z,87.95
2018-11-07T08:51:46.666Z,87.59
2018-11-07T08:54:16.645Z,86.69
2018-11-07T08:56:46.477Z,86.13
2018-11-07T08:59:16.295Z,84.84
2018-11-07T09:01:46.178Z,84.82
2018-11-07T09:04:16.099Z,84.63
2018-11-07T09:06:45.920Z,84.04
2018-11-07T09:09:16.019Z,84.41
2018-11-07T09:11:46.796Z,84.33
2018-11-07T09:14:16.588Z,83.66
2018-11-07T09:16:46.435Z,83.75
2018-11-07T09:19:16.909Z,83.37
2018-11-07T09:21:46.839Z,82.89
2018-11-07T09:24:16.965Z,81.88
2018-11-07T09:26:47.067Z,81.86
2018-11-07T09:29:17.028Z,81.68
2018-11-07T09:31:46.975Z,81.17
2018-11-07T09:34:16.856Z,81.62
2018-11-07T09:36:46.994Z,81.56
2018-11-07T09:39:16.901Z,81.14
2018-11-07T09:41:47.677Z,80.22
2018-11-07T09:44:17.774Z,80.12
2018-11-07T09:46:47.655Z,78.40
2018-11-07T09:49:17.581Z,79.15
2018-11-07T09:51:47.366Z,79.01
2018-11-07T09:54:17.429Z,78.48
2018-11-07T09:56:47.465Z,77.11
2018-11-07T09:59:17.406Z,77.58
2018-11-07T10:01:47.622Z,77.49
2018-11-07T10:04:17.612Z,77.86
2018-11-07T10:06:47.460Z,76.93
2018-11-07T10:09:17.874Z,76.29
2018-11-07T10:11:48.603Z,76.24
2018-11-07T10:14:18.428Z,76.36
2018-11-07T10:16:48.307Z,75.62
2018-11-07T10:19:18.184Z,75.11
2018-11-07T10:21:47.994Z,75.61
2018-11-07T10:24:17.903Z,74.83
2018-11-07T10:26:47.749Z,74.90
2018-11-07T10:29:18.060Z,73.41
2018-11-07T10:31:47.780Z,73.98
2018-11-07T10:34:18.311Z,72.87
2018-11-07T10:36:48.138Z,72.52
2018-11-07T10:39:18.063Z,72.14
2018-11-07T10:41:48.620Z,71.17
2018-11-07T10:44:18.520Z,71.33
2018-11-07T10:46:48.521Z,70.67
2018-11-07T10:49:18.392Z,70.48
2018-11-07T10:51:48.273Z,70.68
2018-11-07T10:54:18.323Z,70.70
2018-11-07T10:56:48.348Z,69.37
2018-11-07T10:59:18.799Z,68.88
2018-11-07T11:01:53.773Z,69.54
2018-11-07T11:04:23.918Z,68.12
2018-11-07T11:06:53.792Z,67.83
2018-11-07T11:09:23.688Z,67.76
2018-11-07T11:11:53.570Z,67.64
2018-11-07T11:14:24.038Z,66.52
2018-11-07T11:16:54.090Z,66.19
2018-11-07T11:19:24.030Z,67.67
2018-11-07T11:21:53.910Z,67.46
2018-11-07T11:24:23.816Z,66.02
2018-11-07T11:26:53.992Z,66.42
2018-11-07T11:29:24.162Z,66.66
2018-11-07T11:31:54.162Z,66.31
2018-11-07T11:34:24.262Z,66.90
2018-11-07T11:36:54.485Z,66.21
2018-11-07T11:39:24.333Z,67.30
2018-11-07T11:41:54.212Z,67.37
2018-11-07T11:44:24.092Z,65.29
2018-11-07T11:46:54.090Z,65.09
2018-11-07T11:49:24.630Z,66.10
2018-11-07T11:51:54.510Z,65.64
2018-11-07T11:54:24.338Z,65.94
2018-11-07T11:56:55.326Z,65.91
2018-11-07T11:59:25.636Z,65.92
2018-11-07T12:01:55.606Z,65.82
2018-11-07T12:04:25.502Z,65.54
2018-11-07T12:06:55.288Z,65.35
2018-11-07T12:09:25.139Z,64.84
2018-11-07T12:11:55.809Z,65.54
2018-11-07T12:14:25.852Z,64.62
2018-11-07T12:16:55.756Z,64.99
2018-11-07T12:19:25.604Z,65.76
2018-11-07T12:21:55.438Z,65.16
2018-11-07T12:24:25.382Z,64.91
2018-11-07T12:26:56.004Z,64.01
2018-11-07T12:29:26.003Z,63.54
2018-11-07T12:31:55.990Z,63.66
2018-11-07T12:34:25.934Z,63.31
2018-11-07T12:36:56.628Z,63.30
2018-11-07T12:39:26.536Z,62.86
2018-11-07T12:41:56.609Z,62.42
2018-11-07T12:44:26.472Z,62.33
2018-11-07T12:46:56.348Z,62.04
2018-11-07T12:49:26.837Z,60.92
2018-11-07T12:51:56.727Z,61.06
2018-11-07T12:54:26.634Z,60.54
2018-11-07T12:56:56.632Z,61.29
2018-11-07T12:59:26.645Z,61.70
2018-11-07T13:01:57.407Z,61.34
2018-11-07T13:04:27.723Z,61.18
2018-11-07T13:06:57.797Z,61.41
2018-11-07T13:09:27.736Z,61.92
2018-11-07T13:11:58.526Z,62.46
2018-11-07T13:14:28.335Z,62.79
2018-11-07T13:16:58.802Z,63.31
2018-11-07T13:19:28.741Z,63.26
2018-11-07T13:21:58.682Z,63.02
2018-11-07T13:24:29.225Z,64.16
2018-11-07T13:26:59.247Z,63.79
2018-11-07T13:29:29.153Z,64.07
2018-11-07T13:31:58.989Z,64.15
2018-11-07T13:34:29.542Z,64.41
2018-11-07T13:36:59.764Z,63.87
2018-11-07T13:39:30.526Z,64.05
2018-11-07T13:42:01.144Z,63.52
2018-11-07T13:44:30.977Z,63.35
2018-11-07T13:47:00.873Z,64.06
2018-11-07T13:49:31.475Z,64.03
2018-11-07T13:52:01.327Z,64.28
2018-11-07T13:54:31.101Z,62.94
2018-11-07T13:57:00.960Z,61.89
2018-11-07T13:59:31.003Z,61.86
2018-11-07T14:02:01.115Z,62.78
2018-11-07T14:04:31.391Z,61.99
2018-11-07T14:07:01.265Z,62.74
2018-11-07T14:09:31.220Z,62.26
2018-11-07T14:12:01.229Z,61.67
2018-11-07T14:14:31.301Z,61.26
2018-11-07T14:17:01.178Z,61.36
2018-11-07T14:19:31.135Z,61.60
2018-11-07T14:22:00.980Z,62.41
2018-11-07T14:24:30.901Z,61.62
2018-11-07T14:27:01.022Z,62.27
2018-11-07T14:29:31.001Z,62.89
2018-11-07T14:32:02.073Z,62.59
2018-11-07T14:34:32.026Z,62.75
2018-11-07T14:37:01.884Z,63.50
2018-11-07T14:39:31.742Z,64.19
2018-11-07T14:42:01.677Z,64.28
2018-11-07T14:44:31.600Z,64.72
2018-11-07T14:47:01.567Z,64.86
2018-11-07T14:49:31.587Z,64.90
2018-11-07T14:52:01.451Z,65.30
2018-11-07T14:54:31.306Z,65.98
2018-11-07T14:57:01.178Z,66.15
2018-11-07T14:59:31.052Z,66.26
2018-11-07T15:02:00.942Z,66.19
2018-11-07T15:04:30.850Z,66.45
2018-11-07T15:07:00.842Z,66.87
2018-11-07T15:09:31.238Z,67.67
2018-11-07T15:12:01.023Z,68.23
2018-11-07T15:14:30.958Z,68.22
2018-11-07T15:17:00.931Z,68.22
2018-11-07T15:19:31.115Z,68.38
2018-11-07T15:22:01.700Z,68.70
2018-11-07T15:24:31.694Z,68.92
2018-11-07T15:27:01.777Z,68.96
2018-11-07T15:29:31.754Z,69.30
2018-11-07T15:32:01.717Z,69.38
2018-11-07T15:34:31.640Z,70.00
2018-11-07T15:37:01.484Z,70.08
2018-11-07T15:39:31.304Z,70.13
2018-11-07T15:42:01.212Z,71.07
2018-11-07T15:44:31.048Z,70.84
2018-11-07T15:47:00.904Z,70.76
2018-11-07T15:49:30.808Z,70.98
2018-11-07T15:52:00.969Z,71.06
2018-11-07T15:54:30.884Z,71.03
2018-11-07T15:57:00.924Z,71.02
2018-11-07T15:59:30.860Z,70.89
2018-11-07T16:02:00.702Z,71.16
2018-11-07T16:04:30.788Z,71.19
2018-11-07T16:07:00.588Z,70.93
2018-11-07T16:09:30.462Z,71.41
2018-11-07T16:12:00.290Z,71.39
2018-11-07T16:14:30.160Z,71.42
2018-11-07T16:17:00.141Z,71.72
2018-11-07T16:19:30.073Z,71.99
2018-11-07T16:22:00.384Z,72.06
2018-11-07T16:24:30.324Z,72.02
2018-11-07T16:27:00.117Z,72.24
2018-11-07T16:29:30.022Z,72.59
2018-11-07T16:31:59.860Z,72.71
2018-11-07T16:34:29.656Z,72.16
2018-11-07T16:36:59.587Z,72.73
2018-11-07T16:39:29.602Z,72.38
2018-11-07T16:41:59.851Z,73.28
2018-11-07T16:44:30.513Z,73.14
2018-11-07T16:47:00.489Z,73.09
2018-11-07T16:49:31.290Z,73.65
2018-11-07T16:52:01.086Z,73.65
2018-11-07T16:54:30.996Z,73.62
2018-11-07T16:57:01.019Z,73.98
2018-11-07T16:59:30.842Z,74.07
2018-11-07T17:02:00.658Z,74.40
2018-11-07T17:04:30.621Z,74.60
2018-11-07T17:07:00.680Z,74.45
2018-11-07T17:09:31.492Z,74.20
2018-11-07T17:12:01.461Z,74.80
2018-11-07T17:14:31.318Z,74.34
2018-11-07T17:17:01.178Z,74.59
2018-11-07T17:19:31.171Z,74.82
2018-11-07T17:22:00.993Z,74.82
2018-11-07T17:24:31.209Z,75.15
2018-11-07T17:27:01.141Z,75.15
2018-11-07T17:29:31.047Z,75.55
2018-11-07T17:32:02.809Z,76.06
2018-11-07T17:34:32.792Z,75.54
2018-11-07T17:37:02.614Z,75.09
2018-11-07T17:39:32.687Z,74.57
2018-11-07T17:42:02.714Z,74.51
2018-11-07T17:44:32.639Z,74.50
2018-11-07T17:47:02.491Z,74.82
2018-11-07T17:49:32.410Z,74.85
2018-11-07T17:52:02.468Z,74.84
2018-11-07T17:54:32.828Z,74.60
2018-11-07T17:57:02.624Z,74.79
2018-11-07T17:59:32.486Z,74.41
2018-11-07T18:02:02.993Z,74.92
2018-11-07T18:04:33.678Z,74.36
2018-11-07T18:07:03.579Z,74.81
2018-11-07T18:09:34.336Z,75.27
2018-11-07T18:12:04.369Z,75.71
2018-11-07T18:14:34.249Z,75.65
2018-11-07T18:17:04.541Z,76.12
2018-11-07T18:19:34.448Z,75.78
2018-11-07T18:22:04.586Z,75.95
2018-11-07T18:24:34.828Z,75.73
2018-11-07T18:27:04.659Z,75.98
2018-11-07T18:29:34.722Z,75.77
2018-11-07T18:32:04.789Z,75.30
2018-11-07T18:34:36.551Z,75.62
2018-11-07T18:37:07.699Z,76.03
2018-11-07T18:39:38.040Z,75.87
2018-11-07T18:42:08.202Z,75.58
2018-11-07T18:44:39.166Z,75.09
2018-11-07T18:47:10.197Z,74.91
2018-11-07T18:49:40.238Z,75.21
2018-11-07T18:52:10.282Z,74.75
2018-11-07T18:54:40.162Z,75.53
2018-11-07T18:57:10.015Z,75.31
2018-11-07T18:59:39.961Z,74.92
2018-11-07T19:02:09.776Z,75.02
2018-11-07T19:04:39.630Z,75.26
2018-11-07T19:07:09.492Z,75.56
2018-11-07T19:09:40.118Z,76.18
2018-11-07T19:12:09.935Z,76.16
2018-11-07T19:14:39.799Z,76.50
2018-11-07T19:17:09.599Z,76.93
2018-11-07T19:19:39.488Z,77.33
2018-11-07T19:22:09.413Z,77.13
2018-11-07T19:24:39.497Z,76.82
2018-11-07T19:27:09.275Z,77.35
2018-11-07T19:29:39.398Z,77.12
2018-11-07T19:32:09.399Z,77.76
2018-11-07T19:34:39.895Z,77.29
2018-11-07T19:37:11.221Z,77.73
2018-11-07T19:39:40.997Z,77.61
2018-11-07T19:42:12.301Z,77.54
2018-11-07T19:44:42.177Z,77.52
2018-11-07T19:47:11.985Z,77.54
2018-11-07T19:49:41.873Z,77.63
2018-11-07T19:52:11.637Z,78.40
2018-11-07T19:54:41.492Z,78.22
2018-11-07T19:57:12.627Z,78.64
2018-11-07T19:59:42.565Z,78.71
2018-11-07T20:02:12.519Z,78.87
2018-11-07T20:04:42.403Z,78.67
2018-11-07T20:07:12.227Z,78.60
2018-11-07T20:09:42.096Z,78.72
2018-11-07T20:12:12.043Z,78.57
2018-11-07T20:14:41.941Z,78.48
2018-11-07T20:17:11.925Z,78.56
2018-11-07T20:19:41.899Z,79.42
2018-11-07T20:22:11.737Z,79.38
2018-11-07T20:24:41.540Z,80.38
2018-11-07T20:27:11.302Z,81.25
2018-11-07T20:29:41.175Z,80.41
2018-11-07T20:32:10.935Z,81.11
2018-11-07T20:34:40.743Z,81.44
2018-11-07T20:37:10.767Z,82.46
2018-11-07T20:39:40.738Z,82.93
2018-11-07T20:42:11.103Z,83.15
2018-11-07T20:44:41.371Z,82.81
2018-11-07T20:47:11.571Z,82.56
2018-11-07T20:49:41.689Z,82.53
2018-11-07T20:52:11.596Z,82.33
2018-11-07T20:54:41.517Z,82.86
2018-11-07T20:57:12.167Z,84.09
2018-11-07T20:59:42.120Z,84.46
2018-11-07T21:02:11.919Z,84.55
2018-11-07T21:04:42.064Z,83.57
2018-11-07T21:07:11.911Z,83.34
2018-11-07T21:09:41.712Z,83.71
2018-11-07T21:12:11.559Z,83.80
2018-11-07T21:14:41.445Z,83.37
2018-11-07T21:17:11.632Z,83.38
2018-11-07T21:19:41.497Z,83.46
2018-11-07T21:22:12.608Z,83.29
2018-11-07T21:24:42.435Z,82.66
2018-11-07T21:27:12.348Z,82.79
2018-11-07T21:29:42.283Z,83.02
2018-11-07T21:32:12.106Z,83.06
2018-11-07T21:34:42.216Z,82.96
2018-11-07T21:37:12.340Z,82.87
2018-11-07T21:39:42.183Z,82.98
2018-11-07T21:42:12.070Z,83.10
2018-11-07T21:44:41.824Z,83.10
2018-11-07T21:47:11.624Z,83.38
2018-11-07T21:49:41.807Z,83.51
2018-11-07T21:52:11.624Z,82.52
2018-11-07T21:54:42.101Z,82.57
2018-11-07T21:57:12.235Z,82.43
2018-11-07T21:59:42.094Z,82.59
2018-11-07T22:02:12.548Z,82.36
2018-11-07T22:04:44.298Z,82.62
2018-11-07T22:07:14.222Z,82.55
2018-11-07T22:09:44.266Z,83.32
2018-11-07T22:12:14.258Z,83.60
2018-11-07T22:14:45.203Z,82.41
2018-11-07T22:17:15.045Z,83.53
2018-11-07T22:19:44.916Z,85.83
2018-11-07T22:22:14.800Z,86.78
2018-11-07T22:24:44.732Z,87.38
2018-11-07T22:27:15.366Z,88.15
2018-11-07T22:29:45.232Z,87.64
2018-11-07T22:32:15.122Z,87.88
2018-11-07T22:34:45.054Z,88.32
2018-11-07T22:37:14.938Z,89.15
2018-11-07T22:39:45.703Z,89.59
2018-11-07T22:42:15.615Z,89.98
2018-11-07T22:44:45.900Z,89.41
2018-11-07T22:47:15.734Z,89.52
2018-11-07T22:49:45.581Z,89.23
2018-11-07T22:52:15.496Z,89.05
2018-11-07T22:54:45.595Z,89.38
2018-11-07T22:57:15.495Z,89.21
2018-11-07T22:59:45.517Z,89.34
2018-11-07T23:02:15.337Z,89.48
2018-11-07T23:04:45.259Z,89.45
2018-11-07T23:07:15.060Z,89.54
2018-11-07T23:09:44.942Z,89.22
2018-11-07T23:12:14.813Z,89.47
2018-11-07T23:14:44.745Z,89.75
2018-11-07T23:17:14.725Z,90.26
2018-11-07T23:19:44.748Z,90.44
2018-11-07T23:22:14.582Z,90.78
2018-11-07T23:24:44.522Z,91.78
2018-11-07T23:27:14.437Z,92.50
2018-11-07T23:29:44.439Z,92.82
2018-11-07T23:32:14.359Z,92.87
2018-11-07T23:34:44.281Z,92.86
2018-11-07T23:37:14.399Z,92.41
2018-11-07T23:39:44.327Z,92.21
2018-11-07T23:42:14.239Z,91.30
2018-11-07T23:44:44.083Z,91.58
2018-11-07T23:47:14.054Z,89.94
2018-11-07T23:49:44.161Z,90.77
2018-11-07T23:52:18.313Z,90.71
2018-11-07T23:54:48.340Z,90.81
2018-11-07T23:57:18.608Z,91.48
2018-11-07T23:59:48.719Z,91.50
